createdAt,value
2024-01-26T00:03:02.844Z,1024.1019755898762
2024-01-26T00:06:23.717Z,1024.0477838598829
2024-01-26T00:09:44.526Z,1023.9685015763139
2024-01-26T00:14:37.680Z,1023.8799996852813
2024-01-26T00:19:34.554Z,1023.8557229745433
2024-01-26T00:22:54.615Z,1023.7937744716471
2024-01-26T00:26:14.606Z,1023.7145263360483
2024-01-26T00:29:35.378Z,1023.7100349534031
2024-01-26T00:32:55.108Z,1023.6667549121938
2024-01-26T00:36:16.237Z,1023.6307157882585
2024-01-26T00:40:41.073Z,1023.629834056419
2024-01-26T00:44:01.943Z,1023.6160517755006
2024-01-26T00:47:22.433Z,1023.5616885927132
2024-01-26T00:50:43.439Z,1023.5095495671914
2024-01-26T00:54:03.473Z,1023.4387211103817
2024-01-26T00:57:24.674Z,1023.3986424042569
2024-01-26T01:00:45.026Z,1023.4321937725434
2024-01-26T01:04:05.206Z,1023.4209843352646
2024-01-26T01:07:24.940Z,1023.4490688258921
2024-01-26T01:10:46.239Z,1023.4625862277044
2024-01-26T01:14:06.196Z,1023.4370922584123
2024-01-26T01:17:26.503Z,1023.4358222443058
2024-01-26T01:20:46.470Z,1023.3959239462516
2024-01-26T01:24:06.484Z,1023.3621192040704
2024-01-26T01:30:02.770Z,1023.1681561369488
2024-01-26T01:33:22.598Z,1023.0739878177891
2024-01-26T01:36:42.443Z,1023.0408526902828
2024-01-26T01:42:07.465Z,1023.0265587675021
2024-01-26T01:45:27.809Z,1022.996098250211
2024-01-26T01:48:48.064Z,1022.9588262738658
2024-01-26T01:52:08.420Z,1022.9387071145659
2024-01-26T01:55:28.614Z,1022.8565639310324
2024-01-26T01:58:48.803Z,1022.8180407615828
2024-01-26T02:02:09.796Z,1022.7891894132464
2024-01-26T02:05:30.434Z,1022.7904110183316
2024-01-26T02:10:34.620Z,1022.7378297011304
2024-01-26T02:13:54.438Z,1022.742893593285
2024-01-26T02:17:15.337Z,1022.7400085061133
2024-01-26T02:20:52.512Z,1022.7179058086778
2024-01-26T02:28:11.550Z,1022.6026884195959
2024-01-26T02:31:31.471Z,1022.5829711016686
2024-01-26T02:34:51.384Z,1022.4771834619563
2024-01-26T02:41:17.040Z,1022.3096922573385
2024-01-26T02:45:50.466Z,1022.2620812848569
2024-01-26T02:52:34.119Z,1022.1635473831963
2024-01-26T02:55:54.146Z,1022.0754662896555
2024-01-26T02:59:14.711Z,1021.970625615747
2024-01-26T03:04:19.236Z,1021.8953371137901
2024-01-26T03:07:39.624Z,1021.8853500939293
2024-01-26T03:10:59.486Z,1021.8795441085318
2024-01-26T03:14:20.586Z,1021.9236572751768
2024-01-26T03:17:40.630Z,1021.9206635026711
2024-01-26T03:21:00.122Z,1021.8428841207265
2024-01-26T03:24:19.822Z,1021.7671578877541
2024-01-26T03:27:39.707Z,1021.6938325515431
2024-01-26T03:30:59.864Z,1021.6604175731882
2024-01-26T03:34:20.800Z,1021.6200821770661
2024-01-26T03:37:40.832Z,1021.5839847983498
2024-01-26T03:41:01.207Z,1021.6210910133024
2024-01-26T03:44:23.518Z,1021.6064600801836
2024-01-26T03:47:43.610Z,1021.5266424084255
2024-01-26T03:51:04.561Z,1021.398710319738
2024-01-26T03:54:25.037Z,1021.3770919822574
2024-01-26T03:57:44.907Z,1021.2841604334498
2024-01-26T04:01:04.972Z,1021.2365760615598
2024-01-26T04:04:26.010Z,1021.1747720794502
2024-01-26T04:07:46.198Z,1021.0794242907631
2024-01-26T04:11:05.900Z,1021.0454423911505
2024-01-26T04:14:26.136Z,1020.9138126614312
2024-01-26T04:17:46.859Z,1020.7247529595812
2024-01-26T04:21:06.393Z,1020.6796341219471
2024-01-26T04:24:26.606Z,1020.7472819702591
2024-01-26T04:30:10.824Z,1020.7025850653971
2024-01-26T04:33:30.813Z,1020.6401449925482
2024-01-26T04:36:50.892Z,1020.5451054577895
2024-01-26T04:40:11.586Z,1020.4267977904407
2024-01-26T04:43:31.732Z,1020.375411157886
2024-01-26T04:46:52.392Z,1020.3257893295042
2024-01-26T04:50:12.903Z,1020.2502645514562
2024-01-26T04:53:32.985Z,1020.1523574933618
2024-01-26T05:00:10.795Z,1020.0769208688678
2024-01-26T05:03:30.684Z,1019.983355569759
2024-01-26T05:09:59.842Z,1019.8572390450893
2024-01-26T05:13:20.632Z,1019.81233944741
2024-01-26T05:22:40.605Z,1019.4461496554342
2024-01-26T05:26:01.120Z,1019.4364070269792
2024-01-26T05:29:23.887Z,1019.4416320789284
2024-01-26T05:32:45.727Z,1019.3317578511561
2024-01-26T05:38:59.769Z,1019.4042795748729
2024-01-26T05:42:20.059Z,1019.288999609446
2024-01-26T05:45:40.014Z,1019.1724479566154
2024-01-26T05:49:00.078Z,1019.1631743248346
2024-01-26T05:52:28.318Z,1019.0863291042537
2024-01-26T05:55:49.371Z,1019.0536085355966
2024-01-26T05:59:10.714Z,1018.8544442194835
2024-01-26T06:02:30.556Z,1018.7049587102877
2024-01-26T06:05:50.772Z,1018.6317484884864
2024-01-26T06:10:53.319Z,1018.6264545552397
2024-01-26T06:14:13.056Z,1018.64550310551
2024-01-26T06:17:34.120Z,1018.5374818948542
2024-01-26T06:20:54.062Z,1018.6791212379652
2024-01-26T06:24:13.939Z,1018.7326070197288
2024-01-26T06:28:06.480Z,1018.6890107650921
2024-01-26T06:31:26.836Z,1018.5788962045265
2024-01-26T06:34:47.248Z,1018.610698324358
2024-01-26T06:41:25.184Z,1018.4774306859866
2024-01-26T06:44:45.985Z,1018.3556299994875
2024-01-26T06:48:06.358Z,1018.2980876993157
2024-01-26T06:51:27.406Z,1018.1854776221329
2024-01-26T06:54:47.381Z,1018.0300659025496
2024-01-26T06:58:07.672Z,1017.8607737438479
2024-01-26T07:04:45.509Z,1017.7822010460229
2024-01-26T07:08:06.291Z,1017.6816319471369
2024-01-26T07:11:26.357Z,1017.5010975987083
2024-01-26T07:14:46.547Z,1017.4908682304207
2024-01-26T07:18:06.548Z,1017.5907550011675
2024-01-26T07:21:44.547Z,1017.5158749616659
2024-01-26T07:25:04.002Z,1017.4852372252622
2024-01-26T07:28:24.874Z,1017.439265614813
2024-01-26T07:31:44.841Z,1017.3755181857556
2024-01-26T07:35:05.228Z,1017.342255425358
2024-01-26T07:38:25.570Z,1017.2815096254317
2024-01-26T07:44:22.180Z,1017.1732885804831
2024-01-26T07:47:42.966Z,1017.0566359810067
2024-01-26T07:51:03.118Z,1016.9160463198103
2024-01-26T07:54:23.994Z,1016.7900228220842
2024-01-26T07:57:44.516Z,1016.6615447498209
2024-01-26T08:01:04.053Z,1016.6382236247869
2024-01-26T08:04:24.938Z,1016.6942410693557
2024-01-26T08:07:45.115Z,1016.6847107005349
2024-01-26T08:11:57.822Z,1016.6277669878767
2024-01-26T08:15:18.277Z,1016.5572960657605
2024-01-26T08:18:38.236Z,1016.4947711234557
2024-01-26T08:21:58.399Z,1016.4586010926953
2024-01-26T08:25:18.345Z,1016.4371508205518
2024-01-26T08:28:37.923Z,1016.3481695155225
2024-01-26T08:31:57.875Z,1016.2952637313751
2024-01-26T08:35:17.839Z,1016.2309698481554
2024-01-26T08:38:38.141Z,1016.1067360821822
2024-01-26T08:44:51.164Z,1015.8840124833878
2024-01-26T08:48:15.835Z,1015.8127238905888
2024-01-26T08:51:36.187Z,1015.839831018141
2024-01-26T08:54:56.134Z,1015.8553937054628
2024-01-26T08:58:17.212Z,1015.8602228505715
2024-01-26T09:01:37.296Z,1015.8588612720283
2024-01-26T09:04:57.236Z,1015.8081396792745
2024-01-26T09:08:18.440Z,1015.7695566311451
2024-01-26T09:11:38.795Z,1015.7463670451473
2024-01-26T09:14:59.103Z,1015.6955408479389
2024-01-26T09:18:19.857Z,1015.6701976706801
2024-01-26T09:21:39.870Z,1015.6371183125082
2024-01-26T09:24:59.984Z,1015.5947082801276
2024-01-26T09:28:20.456Z,1015.6325016164753
2024-01-26T09:31:41.113Z,1015.5963364933374
2024-01-26T09:35:00.860Z,1015.533443313903
2024-01-26T09:38:21.259Z,1015.4747745176787
2024-01-26T09:41:41.367Z,1015.3787642705026
2024-01-26T09:45:02.712Z,1015.335933190881
2024-01-26T09:48:23.492Z,1015.2584064326928
2024-01-26T09:51:44.170Z,1015.2183306091281
2024-01-26T09:55:04.926Z,1015.2077467951605
2024-01-26T09:58:25.578Z,1015.1523694713381
2024-01-26T10:02:26.923Z,1015.134157011395
2024-01-26T10:05:47.883Z,1015.1401376474935
2024-01-26T10:09:08.536Z,1015.1292771756433
2024-01-26T10:12:29.073Z,1015.08503759767
2024-01-26T10:15:49.800Z,1015.0464739392052
2024-01-26T10:19:10.992Z,1015.0211108130845
2024-01-26T10:22:30.968Z,1015.0296364634619
2024-01-26T10:25:50.834Z,1015.0075808697221
2024-01-26T10:29:11.932Z,1014.9834334217235
2024-01-26T10:32:32.368Z,1014.9130268081469
2024-01-26T10:35:52.240Z,1014.879556288189
2024-01-26T10:39:13.724Z,1014.8048073829295
2024-01-26T10:44:40.311Z,1014.781678066753
2024-01-26T10:48:01.182Z,1014.8083876946228
2024-01-26T10:51:41.720Z,1014.8149670877303
2024-01-26T10:55:01.644Z,1014.8283436396478
2024-01-26T10:58:22.157Z,1014.818295494285
2024-01-26T11:01:42.798Z,1014.8123223156998
2024-01-26T11:05:02.694Z,1014.9029378583162
2024-01-26T11:08:23.690Z,1015.3134971474295
2024-01-26T11:11:43.651Z,1015.8207783791986
2024-01-26T11:15:04.732Z,1015.9099753775955
2024-01-26T11:18:27.416Z,1015.9830441855256
2024-01-26T11:21:47.367Z,1016.0789190395536
2024-01-26T11:25:06.721Z,1016.1702093909498
2024-01-26T11:28:26.984Z,1016.293801839204
2024-01-26T11:31:47.565Z,1016.4138240055896
2024-01-26T11:35:07.903Z,1016.5342230929408
2024-01-26T11:38:28.091Z,1016.7376567067107
2024-01-26T11:41:48.279Z,1016.809801140088
2024-01-26T11:45:09.140Z,1016.8100597798643
2024-01-26T11:48:29.706Z,1016.9074786953802
2024-01-26T11:51:50.300Z,1016.9661853636754
2024-01-26T11:55:11.005Z,1016.9338364911064
2024-01-26T11:58:33.561Z,1016.8915956741062
2024-01-26T12:01:54.773Z,1016.8967179603175
2024-01-26T12:05:27.986Z,1016.8939185173152
2024-01-26T12:08:47.937Z,1016.9794040594139
2024-01-26T12:12:08.245Z,1017.0807856535828
2024-01-26T12:15:28.603Z,1017.189970642431
2024-01-26T12:18:49.049Z,1017.266349932558
2024-01-26T12:22:09.958Z,1017.3512027594008
2024-01-26T12:25:30.519Z,1017.4253049799337
2024-01-26T12:28:51.142Z,1017.5589962973503
2024-01-26T12:33:59.358Z,1017.7158111389261
2024-01-26T12:37:20.069Z,1017.8673162618896
2024-01-26T12:40:40.320Z,1017.8826437357408
2024-01-26T12:44:00.285Z,1017.8921805945662
2024-01-26T12:47:22.871Z,1017.9504348496173
2024-01-26T12:50:43.741Z,1018.0663295716894
2024-01-26T12:54:04.090Z,1018.1357685025138
2024-01-26T12:57:24.902Z,1018.2156979440152
2024-01-26T13:04:10.064Z,1018.3495531055919
2024-01-26T13:07:30.779Z,1018.4359020186026
2024-01-26T13:10:50.826Z,1018.4698607995867
2024-01-26T13:14:11.183Z,1018.5133548151954
2024-01-26T13:17:31.578Z,1018.6777081988226
2024-01-26T13:20:51.768Z,1018.8174692315159
2024-01-26T13:24:12.240Z,1018.972700712067
2024-01-26T13:27:32.098Z,1019.0769599682084
2024-01-26T13:30:52.532Z,1019.1657631128573
2024-01-26T13:34:12.538Z,1019.2180853000824
2024-01-26T13:39:29.512Z,1019.359279280075
2024-01-26T13:42:50.519Z,1019.3937142398609
2024-01-26T13:48:07.771Z,1019.4198132653321
2024-01-26T13:51:31.821Z,1019.4527337791161
2024-01-26T13:54:52.168Z,1019.5635319700028
2024-01-26T13:58:12.973Z,1019.764164249428
2024-01-26T14:01:33.012Z,1019.9223623544325
2024-01-26T14:04:52.916Z,1020.1164478153345
2024-01-26T14:08:12.638Z,1020.2494910942547
2024-01-26T14:13:45.835Z,1020.4614548983034
2024-01-26T14:17:05.685Z,1020.5918040796815
2024-01-26T14:24:43.026Z,1020.9921763913968
2024-01-26T14:28:02.986Z,1021.0640326724233
2024-01-26T14:31:23.446Z,1021.1964229711915
2024-01-26T14:34:43.488Z,1021.2417930592025
2024-01-26T14:38:03.396Z,1021.3042764059164
2024-01-26T14:41:23.652Z,1021.4300998629508
2024-01-26T14:44:43.120Z,1021.5758557236127
2024-01-26T14:48:03.226Z,1021.720116339752
2024-01-26T14:51:23.916Z,1021.8816623541697
2024-01-26T14:54:43.913Z,1021.9528161744994
2024-01-26T14:58:04.722Z,1022.0542027433253
2024-01-26T15:04:17.796Z,1022.2782387966383
2024-01-26T15:07:39.991Z,1022.3856905623713
2024-01-26T15:11:02.112Z,1022.4752656259998
2024-01-26T15:14:22.392Z,1022.6213976459313
2024-01-26T15:17:43.026Z,1022.6963295218112
2024-01-26T15:21:03.089Z,1022.7882897153652
2024-01-26T15:24:23.375Z,1022.8508318408747
2024-01-26T15:27:44.079Z,1022.9613326968409
2024-01-26T15:35:35.455Z,1023.2761234398513
2024-01-26T15:38:54.922Z,1023.3310170322131
2024-01-26T15:42:15.420Z,1023.4269967214202
2024-01-26T15:45:35.324Z,1023.4881694729761
2024-01-26T15:48:55.446Z,1023.6073405383939
2024-01-26T15:52:19.829Z,1023.7549686401488
2024-01-26T15:58:49.831Z,1024.0200741458511
2024-01-26T16:05:10.694Z,1024.2341795500315
2024-01-26T16:08:32.010Z,1024.3428798120285
2024-01-26T16:13:22.894Z,1024.4474061825576
2024-01-26T16:16:43.014Z,1024.5281486238446
2024-01-26T16:20:03.299Z,1024.645054777896
2024-01-26T16:23:24.160Z,1024.6902754782648
2024-01-26T16:26:44.228Z,1024.7974084489674
2024-01-26T16:30:04.624Z,1024.9321610133795
2024-01-26T16:33:25.842Z,1025.0303827391099
2024-01-26T16:36:45.953Z,1025.0846453491067
2024-01-26T16:40:06.218Z,1025.162354553509
2024-01-26T16:43:26.572Z,1025.2558416758793
2024-01-26T16:46:46.635Z,1025.387427617275
2024-01-26T16:53:13.804Z,1025.544031341055
2024-01-26T16:56:33.731Z,1025.6366612509817
2024-01-26T17:03:59.426Z,1025.767578144323
2024-01-26T17:07:20.389Z,1025.88138301561
2024-01-26T17:10:40.554Z,1025.9779819158402
2024-01-26T17:14:00.544Z,1026.0510705817426
2024-01-26T17:17:20.781Z,1026.113576940306
2024-01-26T17:20:40.781Z,1026.2201458681293
2024-01-26T17:24:00.932Z,1026.3374478219018
2024-01-26T17:27:21.570Z,1026.462142662366
2024-01-26T17:30:42.573Z,1026.5329918246105
2024-01-26T17:34:03.308Z,1026.6123730203522
2024-01-26T17:37:23.420Z,1026.6686835930823
2024-01-26T17:40:43.966Z,1026.7433914627795
2024-01-26T17:44:04.356Z,1026.8124896904144
2024-01-26T17:47:25.803Z,1026.9039212191715
2024-01-26T17:50:47.202Z,1026.9478635533885
2024-01-26T17:56:39.586Z,1027.1315876691342
2024-01-26T17:59:59.450Z,1027.1798405493173
2024-01-26T18:03:20.086Z,1027.2268473462377
2024-01-26T18:06:40.387Z,1027.2627321681503
2024-01-26T18:10:01.574Z,1027.31653831223
2024-01-26T18:13:21.831Z,1027.3790518991275
2024-01-26T18:16:41.786Z,1027.4167416684033
2024-01-26T18:20:39.665Z,1027.452178870985
2024-01-26T18:23:59.486Z,1027.5403414329592
2024-01-26T18:27:20.346Z,1027.6242749830517
2024-01-26T18:30:41.131Z,1027.621873951866
2024-01-26T18:34:01.489Z,1027.6697206590331
2024-01-26T18:37:22.886Z,1027.6849595364774
2024-01-26T18:40:43.985Z,1027.6678685547715
2024-01-26T18:44:04.764Z,1027.7168485804407
2024-01-26T18:47:25.054Z,1027.7874744297815
2024-01-26T18:50:47.480Z,1027.8675708684777
2024-01-26T18:55:38.041Z,1027.9942508897761
2024-01-26T18:58:58.466Z,1028.0432218264834
2024-01-26T19:02:18.309Z,1028.1201999536652
2024-01-26T19:05:38.701Z,1028.1991279821393
2024-01-26T19:08:58.716Z,1028.2627681648303
2024-01-26T19:12:19.837Z,1028.3363008007361
2024-01-26T19:15:39.303Z,1028.3600424945762
2024-01-26T19:18:59.203Z,1028.3423479478872
2024-01-26T19:22:19.434Z,1028.3552814450502
2024-01-26T19:25:39.893Z,1028.3816905081799
2024-01-26T19:29:00.481Z,1028.4038797782694
2024-01-26T19:32:21.240Z,1028.4418639632315
2024-01-26T19:35:41.255Z,1028.4617911543319
2024-01-26T19:39:01.207Z,1028.5087850795144
2024-01-26T19:42:22.282Z,1028.5268468682316
2024-01-26T19:45:43.026Z,1028.564173555522
2024-01-26T19:49:04.112Z,1028.636062994171
2024-01-26T19:52:24.624Z,1028.6818343874631
2024-01-26T19:55:44.602Z,1028.7120152839982
2024-01-26T19:59:04.594Z,1028.7233768838362
2024-01-26T20:02:25.674Z,1028.7956873529718
2024-01-26T20:05:46.191Z,1028.8382138873244
2024-01-26T20:10:05.151Z,1028.8979148293863
2024-01-26T20:13:26.443Z,1028.9813237556777
2024-01-26T20:16:46.817Z,1028.9982038471762
2024-01-26T20:20:08.080Z,1029.0505602361427
2024-01-26T20:23:31.067Z,1029.1145045309138
2024-01-26T20:26:51.872Z,1029.1806724218075
2024-01-26T20:30:13.043Z,1029.1700133583515
2024-01-26T20:33:34.728Z,1029.2054939104494
2024-01-26T20:36:55.070Z,1029.260396012945
2024-01-26T20:41:33.408Z,1029.2906356385208
2024-01-26T20:44:53.887Z,1029.350353797995
2024-01-26T20:48:15.086Z,1029.3859144412975
2024-01-26T20:51:35.308Z,1029.4133730022572
2024-01-26T20:54:56.437Z,1029.5135569463366
2024-01-26T21:00:04.291Z,1029.6083018349648
2024-01-26T21:03:25.277Z,1029.691435791868
2024-01-26T21:06:45.996Z,1029.7808070332942
2024-01-26T21:10:05.895Z,1029.8025054531863
2024-01-26T21:13:26.163Z,1029.8335959841859
2024-01-26T21:19:21.847Z,1029.9699959661327
2024-01-26T21:22:43.823Z,1030.0581265769417
2024-01-26T21:26:04.325Z,1030.1071486325404
2024-01-26T21:29:25.215Z,1030.1313582329165
2024-01-26T21:32:46.014Z,1030.1712845584234
2024-01-26T21:36:06.610Z,1030.1788546183084
2024-01-26T21:39:27.159Z,1030.25646179918
2024-01-26T21:42:47.112Z,1030.302712185337
2024-01-26T21:46:07.168Z,1030.3365432745104
2024-01-26T21:50:13.550Z,1030.3566980733194
2024-01-26T21:56:31.114Z,1030.3895559567015
2024-01-26T21:59:51.693Z,1030.381365439822
2024-01-26T22:05:48.418Z,1030.4120469617392
2024-01-26T22:09:09.334Z,1030.4487161919112
2024-01-26T22:12:30.059Z,1030.489185711656
2024-01-26T22:15:50.125Z,1030.54519400934
2024-01-26T22:19:46.226Z,1030.586706573139
2024-01-26T22:23:06.623Z,1030.622184726433
2024-01-26T22:26:26.899Z,1030.6787015796283
2024-01-26T22:30:24.037Z,1030.7194581204008
2024-01-26T22:33:43.525Z,1030.7363502154428
2024-01-26T22:37:04.626Z,1030.7629070080786
2024-01-26T22:40:25.196Z,1030.736541022399
2024-01-26T22:43:45.682Z,1030.7188235182393
2024-01-26T22:47:06.137Z,1030.7326298417017
2024-01-26T22:50:27.236Z,1030.7795799792834
2024-01-26T22:53:48.243Z,1030.7987088640446
2024-01-26T22:57:07.621Z,1030.8299201894008
2024-01-26T23:00:28.987Z,1030.8591792726602
2024-01-26T23:03:49.863Z,1030.8920847031616
2024-01-26T23:07:11.185Z,1030.8929660841814
2024-01-26T23:10:31.418Z,1030.9167344016626
2024-01-26T23:13:51.690Z,1030.9387513085258
2024-01-26T23:17:13.250Z,1030.9562561900375
2024-01-26T23:20:32.737Z,1031.0229149195836
2024-01-26T23:23:52.458Z,1031.070271789908
2024-01-26T23:27:12.676Z,1031.1132589947974
2024-01-26T23:30:33.021Z,1031.1554416327695
2024-01-26T23:33:53.059Z,1031.208704290586
2024-01-26T23:37:15.302Z,1031.2358563209036
2024-01-26T23:40:35.382Z,1031.278574704086
2024-01-26T23:43:55.312Z,1031.2965345875555
2024-01-26T23:47:15.790Z,1031.3090560942899
2024-01-26T23:50:36.461Z,1031.373043813957
2024-01-26T23:53:56.800Z,1031.3583920681217
2024-01-26T23:57:17.922Z,1031.3806264149343
